Værinformasjon

ENOV 221820Z VRB02KT 9999 8000E SHRA FEW020 SCT035 BKN044 10/07 Q1008 RMK WIND 2175FT 21020KT


ENSD 221750Z VRB04KT 9999 FEW027 SCT036 BKN048 10/08 Q1008 RMK WIND 1138FT 12005KT


ENAL 221820Z 20012KT 9999 SCT062 BKN078 12/07 Q1006


ENML 221820Z 30005KT 260V040 9999 -SHRA FEW030 BKN062 10/07 Q1006